Arthur, Nevada
Current Conditions -  °F | °C
As of 4:35 AM on Wednesday 26 Nov 2014 (Local Time) from KENV Reporting Station
Clear Clear  
Wind Chill: 34°   Ceiling: Unl
Heat Index: 39°   Visibility: 10mi
Dew Point: 27°   Wind: 8mph
Humidity: 61%   Direction: 280°W
Pressure: 30.35"   Gusts: NA
Location:  41.0114°N, 114.57°W
Report Text: KENV 261235Z AUTO 28007KT 10SM CLR 04/M03 A3035 RMK AO1
Loading
Personal Weather Stations






























Interactive Weather Map New forecast layout! Learn more

10-Day Weather Forecast

Advertisements
Track Severe Weather on mobile